sensor_id;sensor_type;location;lat;lon;timestamp;pressure;altitude;pressure_sealevel;temperature;humidity
62103;BME280;48077;48.104;11.702;2022-07-10T00:00:50;95967.25;;;16.35;71.72
62103;BME280;48077;48.104;11.702;2022-07-10T00:03:13;95967.75;;;16.32;72.07
62103;BME280;48077;48.104;11.702;2022-07-10T00:05:37;95989.13;;;16.44;71.74
62103;BME280;48077;48.104;11.702;2022-07-10T00:08:01;95992.88;;;16.43;72.08
62103;BME280;48077;48.104;11.702;2022-07-10T00:10:24;95973.69;;;16.29;72.24
62103;BME280;48077;48.104;11.702;2022-07-10T00:12:49;95984.22;;;16.36;72.29
62103;BME280;48077;48.104;11.702;2022-07-10T00:15:13;96002.84;;;16.43;72.21
62103;BME280;48077;48.104;11.702;2022-07-10T00:17:37;95965.00;;;16.22;72.30
62103;BME280;48077;48.104;11.702;2022-07-10T00:20:02;96003.41;;;16.45;71.64
62103;BME280;48077;48.104;11.702;2022-07-10T00:22:26;95993.41;;;16.40;70.84
62103;BME280;48077;48.104;11.702;2022-07-10T00:24:49;95993.44;;;16.45;70.42
62103;BME280;48077;48.104;11.702;2022-07-10T00:27:17;95989.16;;;16.49;70.14
62103;BME280;48077;48.104;11.702;2022-07-10T00:29:40;95995.91;;;16.52;70.72
62103;BME280;48077;48.104;11.702;2022-07-10T00:32:05;95998.09;;;16.55;69.54
62103;BME280;48077;48.104;11.702;2022-07-10T00:34:28;95996.13;;;16.45;70.10
62103;BME280;48077;48.104;11.702;2022-07-10T00:36:51;96018.28;;;16.52;70.86
62103;BME280;48077;48.104;11.702;2022-07-10T00:39:15;96007.41;;;16.42;71.64
62103;BME280;48077;48.104;11.702;2022-07-10T00:41:38;96006.78;;;16.30;72.79
62103;BME280;48077;48.104;11.702;2022-07-10T00:44:02;96012.66;;;16.27;73.02
62103;BME280;48077;48.104;11.702;2022-07-10T00:46:27;96018.59;;;16.29;73.89
62103;BME280;48077;48.104;11.702;2022-07-10T00:48:51;96005.25;;;16.12;74.78
62103;BME280;48077;48.104;11.702;2022-07-10T00:51:17;96002.19;;;15.98;76.40
62103;BME280;48077;48.104;11.702;2022-07-10T00:53:41;96011.28;;;15.92;78.06
62103;BME280;48077;48.104;11.702;2022-07-10T00:56:06;96022.78;;;15.87;78.75
62103;BME280;48077;48.104;11.702;2022-07-10T00:58:30;96006.09;;;15.63;80.11
62103;BME280;48077;48.104;11.702;2022-07-10T01:00:53;95983.75;;;15.35;81.27
62103;BME280;48077;48.104;11.702;2022-07-10T01:03:17;96002.38;;;15.42;81.98
62103;BME280;48077;48.104;11.702;2022-07-10T01:05:40;95994.53;;;15.41;83.24
62103;BME280;48077;48.104;11.702;2022-07-10T01:08:03;95996.91;;;15.37;84.07
62103;BME280;48077;48.104;11.702;2022-07-10T01:10:27;95993.84;;;15.28;84.36
62103;BME280;48077;48.104;11.702;2022-07-10T01:12:51;95955.69;;;15.04;84.67
62103;BME280;48077;48.104;11.702;2022-07-10T01:15:15;95993.25;;;15.21;86.27
62103;BME280;48077;48.104;11.702;2022-07-10T01:17:38;96009.41;;;15.26;86.89
62103;BME280;48077;48.104;11.702;2022-07-10T01:20:09;96023.41;;;15.28;87.49
62103;BME280;48077;48.104;11.702;2022-07-10T01:22:32;96003.34;;;15.14;88.45
62103;BME280;48077;48.104;11.702;2022-07-10T01:24:56;95987.59;;;15.01;89.46
62103;BME280;48077;48.104;11.702;2022-07-10T01:27:19;96014.28;;;15.07;89.96
62103;BME280;48077;48.104;11.702;2022-07-10T01:29:43;96015.84;;;15.03;89.42
62103;BME280;48077;48.104;11.702;2022-07-10T01:32:07;96009.84;;;14.96;88.88
62103;BME280;48077;48.104;11.702;2022-07-10T01:34:30;96004.94;;;14.93;88.81
62103;BME280;48077;48.104;11.702;2022-07-10T01:36:54;96007.72;;;14.98;86.52
62103;BME280;48077;48.104;11.702;2022-07-10T01:39:17;96000.50;;;14.82;87.99
62103;BME280;48077;48.104;11.702;2022-07-10T01:41:40;95975.81;;;14.63;88.21
62103;BME280;48077;48.104;11.702;2022-07-10T01:44:04;95991.31;;;14.77;87.94
62103;BME280;48077;48.104;11.702;2022-07-10T01:46:27;95977.56;;;14.74;88.21
62103;BME280;48077;48.104;11.702;2022-07-10T01:48:51;95966.25;;;14.55;89.07
62103;BME280;48077;48.104;11.702;2022-07-10T01:51:14;95963.38;;;14.56;89.75
62103;BME280;48077;48.104;11.702;2022-07-10T01:53:38;95931.47;;;14.26;90.30
62103;BME280;48077;48.104;11.702;2022-07-10T01:56:05;95978.78;;;14.49;90.81
62103;BME280;48077;48.104;11.702;2022-07-10T01:58:29;95993.34;;;14.53;91.75
62103;BME280;48077;48.104;11.702;2022-07-10T02:00:52;95979.84;;;14.48;91.08
62103;BME280;48077;48.104;11.702;2022-07-10T02:03:15;95991.72;;;14.52;91.33
62103;BME280;48077;48.104;11.702;2022-07-10T02:05:57;95971.47;;;14.45;92.35
62103;BME280;48077;48.104;11.702;2022-07-10T02:08:20;95968.63;;;14.51;93.26
62103;BME280;48077;48.104;11.702;2022-07-10T02:10:44;95953.50;;;14.45;93.30
62103;BME280;48077;48.104;11.702;2022-07-10T02:13:08;95953.19;;;14.42;93.07
62103;BME280;48077;48.104;11.702;2022-07-10T02:15:33;95969.53;;;14.57;94.02
62103;BME280;48077;48.104;11.702;2022-07-10T02:17:56;95955.69;;;14.48;93.53
62103;BME280;48077;48.104;11.702;2022-07-10T02:20:19;95949.75;;;14.46;93.64
62103;BME280;48077;48.104;11.702;2022-07-10T02:22:43;95945.13;;;14.42;94.01
62103;BME280;48077;48.104;11.702;2022-07-10T02:25:06;95937.16;;;14.30;94.02
62103;BME280;48077;48.104;11.702;2022-07-10T02:27:30;95965.03;;;14.46;94.60
62103;BME280;48077;48.104;11.702;2022-07-10T02:29:53;95905.63;;;14.03;94.44
62103;BME280;48077;48.104;11.702;2022-07-10T02:32:17;95964.16;;;14.40;94.69
62103;BME280;48077;48.104;11.702;2022-07-10T02:34:40;95946.84;;;14.31;94.55
62103;BME280;48077;48.104;11.702;2022-07-10T02:37:04;95967.56;;;14.52;94.63
62103;BME280;48077;48.104;11.702;2022-07-10T02:39:27;95952.91;;;14.43;94.52
62103;BME280;48077;48.104;11.702;2022-07-10T02:41:50;95967.81;;;14.51;94.52
62103;BME280;48077;48.104;11.702;2022-07-10T02:44:14;95934.41;;;14.25;94.70
62103;BME280;48077;48.104;11.702;2022-07-10T02:46:37;95969.28;;;14.42;95.24
62103;BME280;48077;48.104;11.702;2022-07-10T02:49:00;95951.31;;;14.25;95.74
62103;BME280;48077;48.104;11.702;2022-07-10T02:51:24;95948.94;;;14.29;95.55
62103;BME280;48077;48.104;11.702;2022-07-10T02:53:47;95947.91;;;14.30;95.51
62103;BME280;48077;48.104;11.702;2022-07-10T02:56:10;95970.34;;;14.41;95.39
62103;BME280;48077;48.104;11.702;2022-07-10T02:58:34;95973.34;;;14.44;95.50
62103;BME280;48077;48.104;11.702;2022-07-10T03:00:57;95944.31;;;14.24;95.29
62103;BME280;48077;48.104;11.702;2022-07-10T03:03:20;95958.06;;;14.28;95.58
62103;BME280;48077;48.104;11.702;2022-07-10T03:05:45;95973.75;;;14.36;95.69
62103;BME280;48077;48.104;11.702;2022-07-10T03:08:08;95972.94;;;14.35;95.83
62103;BME280;48077;48.104;11.702;2022-07-10T03:10:31;95954.16;;;14.18;96.11
62103;BME280;48077;48.104;11.702;2022-07-10T03:12:55;95960.09;;;14.21;95.95
62103;BME280;48077;48.104;11.702;2022-07-10T03:15:18;95967.72;;;14.29;96.29
62103;BME280;48077;48.104;11.702;2022-07-10T03:17:42;95942.84;;;14.16;96.55
62103;BME280;48077;48.104;11.702;2022-07-10T03:20:06;95976.09;;;14.32;96.43
62103;BME280;48077;48.104;11.702;2022-07-10T03:22:29;95946.94;;;14.19;96.16
62103;BME280;48077;48.104;11.702;2022-07-10T03:24:54;95937.09;;;14.08;96.12
62103;BME280;48077;48.104;11.702;2022-07-10T03:27:18;95957.50;;;14.26;96.45
62103;BME280;48077;48.104;11.702;2022-07-10T03:29:41;95948.88;;;14.24;96.57
62103;BME280;48077;48.104;11.702;2022-07-10T03:32:05;95964.00;;;14.30;96.34
62103;BME280;48077;48.104;11.702;2022-07-10T03:34:28;95974.16;;;14.28;96.30
62103;BME280;48077;48.104;11.702;2022-07-10T03:36:52;95972.22;;;14.23;96.21
62103;BME280;48077;48.104;11.702;2022-07-10T03:39:15;95954.59;;;14.10;96.20
62103;BME280;48077;48.104;11.702;2022-07-10T03:41:38;95956.59;;;14.03;96.36
62103;BME280;48077;48.104;11.702;2022-07-10T03:44:02;95951.41;;;13.96;96.61
62103;BME280;48077;48.104;11.702;2022-07-10T03:46:25;95941.06;;;13.88;96.79
62103;BME280;48077;48.104;11.702;2022-07-10T03:48:48;95971.31;;;14.01;97.04
62103;BME280;48077;48.104;11.702;2022-07-10T03:51:12;95958.53;;;13.91;96.80
62103;BME280;48077;48.104;11.702;2022-07-10T03:53:35;95970.25;;;14.02;96.99
62103;BME280;48077;48.104;11.702;2022-07-10T03:55:59;95972.91;;;14.02;96.97
62103;BME280;48077;48.104;11.702;2022-07-10T03:58:23;95970.81;;;14.04;97.12
62103;BME280;48077;48.104;11.702;2022-07-10T04:00:47;95966.41;;;13.97;96.84
62103;BME280;48077;48.104;11.702;2022-07-10T04:03:10;95953.50;;;13.94;96.61
62103;BME280;48077;48.104;11.702;2022-07-10T04:05:34;95968.69;;;14.06;96.85
62103;BME280;48077;48.104;11.702;2022-07-10T04:07:58;95959.50;;;14.02;96.60
62103;BME280;48077;48.104;11.702;2022-07-10T04:10:23;95954.88;;;13.97;96.58
62103;BME280;48077;48.104;11.702;2022-07-10T04:12:46;95974.06;;;14.06;96.16
62103;BME280;48077;48.104;11.702;2022-07-10T04:15:11;95968.63;;;14.01;96.70
62103;BME280;48077;48.104;11.702;2022-07-10T04:17:34;95976.66;;;14.01;96.73
62103;BME280;48077;48.104;11.702;2022-07-10T04:19:59;95950.97;;;13.88;96.85
62103;BME280;48077;48.104;11.702;2022-07-10T04:22:22;95944.22;;;13.85;96.86
62103;BME280;48077;48.104;11.702;2022-07-10T04:24:46;95957.56;;;13.97;96.85
62103;BME280;48077;48.104;11.702;2022-07-10T04:27:09;95962.53;;;14.05;96.59
62103;BME280;48077;48.104;11.702;2022-07-10T04:29:33;95966.69;;;14.13;96.50
62103;BME280;48077;48.104;11.702;2022-07-10T04:32:21;95950.03;;;14.11;96.40
62103;BME280;48077;48.104;11.702;2022-07-10T04:34:45;95962.19;;;14.18;96.66
62103;BME280;48077;48.104;11.702;2022-07-10T04:37:09;95941.97;;;14.11;96.25
62103;BME280;48077;48.104;11.702;2022-07-10T04:39:32;95963.59;;;14.21;96.26
62103;BME280;48077;48.104;11.702;2022-07-10T04:41:56;95954.16;;;14.18;96.59
62103;BME280;48077;48.104;11.702;2022-07-10T04:44:19;95966.34;;;14.26;96.59
62103;BME280;48077;48.104;11.702;2022-07-10T04:46:42;95954.47;;;14.22;96.16
62103;BME280;48077;48.104;11.702;2022-07-10T04:49:06;95957.16;;;14.22;96.68
62103;BME280;48077;48.104;11.702;2022-07-10T04:51:29;95974.16;;;14.28;96.50
62103;BME280;48077;48.104;11.702;2022-07-10T04:53:54;95957.16;;;14.22;96.17
62103;BME280;48077;48.104;11.702;2022-07-10T04:56:17;95964.06;;;14.18;95.50
62103;BME280;48077;48.104;11.702;2022-07-10T04:58:40;95954.59;;;14.10;95.75
62103;BME280;48077;48.104;11.702;2022-07-10T05:01:04;95972.22;;;14.23;96.13
62103;BME280;48077;48.104;11.702;2022-07-10T05:03:28;95977.88;;;14.27;96.34
62103;BME280;48077;48.104;11.702;2022-07-10T05:05:51;95980.00;;;14.25;95.89
62103;BME280;48077;48.104;11.702;2022-07-10T05:08:15;95971.88;;;14.20;94.51
62103;BME280;48077;48.104;11.702;2022-07-10T05:10:38;95972.63;;;14.15;94.64
62103;BME280;48077;48.104;11.702;2022-07-10T05:13:03;95986.44;;;14.24;94.75
62103;BME280;48077;48.104;11.702;2022-07-10T05:15:26;95986.44;;;14.24;94.71
62103;BME280;48077;48.104;11.702;2022-07-10T05:17:49;95977.97;;;14.15;94.33
62103;BME280;48077;48.104;11.702;2022-07-10T05:20:13;95978.06;;;14.20;95.31
62103;BME280;48077;48.104;11.702;2022-07-10T05:22:36;95988.38;;;14.28;95.32
62103;BME280;48077;48.104;11.702;2022-07-10T05:25:00;95982.69;;;14.25;95.37
62103;BME280;48077;48.104;11.702;2022-07-10T05:27:23;95979.13;;;14.19;93.08
62103;BME280;48077;48.104;11.702;2022-07-10T05:29:47;95990.03;;;14.29;92.73
62103;BME280;48077;48.104;11.702;2022-07-10T05:32:10;95980.66;;;14.32;92.04
62103;BME280;48077;48.104;11.702;2022-07-10T05:34:34;95995.06;;;14.43;92.66
62103;BME280;48077;48.104;11.702;2022-07-10T05:36:57;95962.94;;;14.14;91.37
62103;BME280;48077;48.104;11.702;2022-07-10T05:39:21;95954.31;;;14.12;91.17
62103;BME280;48077;48.104;11.702;2022-07-10T05:41:45;95981.41;;;14.27;91.51
62103;BME280;48077;48.104;11.702;2022-07-10T05:44:08;95988.88;;;14.42;91.59
62103;BME280;48077;48.104;11.702;2022-07-10T05:46:32;95985.06;;;14.38;90.24
62103;BME280;48077;48.104;11.702;2022-07-10T05:48:55;95987.41;;;14.34;90.47
62103;BME280;48077;48.104;11.702;2022-07-10T05:51:18;95999.53;;;14.37;91.07
62103;BME280;48077;48.104;11.702;2022-07-10T05:53:42;95977.47;;;14.35;90.64
62103;BME280;48077;48.104;11.702;2022-07-10T05:56:05;95980.16;;;14.35;91.11
62103;BME280;48077;48.104;11.702;2022-07-10T05:58:29;95996.13;;;14.42;89.92
62103;BME280;48077;48.104;11.702;2022-07-10T06:00:52;95986.94;;;14.37;89.30
62103;BME280;48077;48.104;11.702;2022-07-10T06:03:16;95999.38;;;14.44;88.58
62103;BME280;48077;48.104;11.702;2022-07-10T06:05:39;95997.41;;;14.39;89.19
62103;BME280;48077;48.104;11.702;2022-07-10T06:08:03;95975.06;;;14.33;89.37
62103;BME280;48077;48.104;11.702;2022-07-10T06:10:27;95982.53;;;14.31;88.20
62103;BME280;48077;48.104;11.702;2022-07-10T06:12:50;95993.56;;;14.52;88.90
62103;BME280;48077;48.104;11.702;2022-07-10T06:15:13;96006.38;;;14.62;87.97
62103;BME280;48077;48.104;11.702;2022-07-10T06:17:37;95980.66;;;14.49;86.70
62103;BME280;48077;48.104;11.702;2022-07-10T06:20:00;95965.34;;;14.49;86.97
62103;BME280;48077;48.104;11.702;2022-07-10T06:22:24;95972.44;;;14.72;87.98
62103;BME280;48077;48.104;11.702;2022-07-10T06:24:53;95984.91;;;15.01;87.10
62103;BME280;48077;48.104;11.702;2022-07-10T06:27:17;95966.31;;;14.94;86.09
62103;BME280;48077;48.104;11.702;2022-07-10T06:29:40;96006.34;;;15.17;85.28
62103;BME280;48077;48.104;11.702;2022-07-10T06:32:04;96013.66;;;15.22;83.92
62103;BME280;48077;48.104;11.702;2022-07-10T06:34:28;95997.16;;;15.13;83.61
62103;BME280;48077;48.104;11.702;2022-07-10T06:36:51;96006.97;;;15.25;83.50
62103;BME280;48077;48.104;11.702;2022-07-10T06:39:14;95997.63;;;15.27;82.95
62103;BME280;48077;48.104;11.702;2022-07-10T06:41:38;95974.72;;;15.25;82.28
62103;BME280;48077;48.104;11.702;2022-07-10T06:44:02;95993.69;;;15.62;82.42
62103;BME280;48077;48.104;11.702;2022-07-10T06:46:26;95992.56;;;15.75;82.01
62103;BME280;48077;48.104;11.702;2022-07-10T06:48:50;95986.19;;;15.86;80.48
62103;BME280;48077;48.104;11.702;2022-07-10T06:51:13;95989.03;;;16.02;79.99
62103;BME280;48077;48.104;11.702;2022-07-10T06:53:36;95978.75;;;15.71;79.57
62103;BME280;48077;48.104;11.702;2022-07-10T06:56:00;95980.97;;;15.74;79.92
62103;BME280;48077;48.104;11.702;2022-07-10T06:58:23;95983.41;;;15.76;79.54
62103;BME280;48077;48.104;11.702;2022-07-10T07:00:47;95942.56;;;15.57;79.36
62103;BME280;48077;48.104;11.702;2022-07-10T07:03:10;95967.78;;;15.73;79.30
62103;BME280;48077;48.104;11.702;2022-07-10T07:05:34;95985.94;;;15.66;78.78
62103;BME280;48077;48.104;11.702;2022-07-10T07:07:57;95986.34;;;15.52;79.27
62103;BME280;48077;48.104;11.702;2022-07-10T07:10:20;95987.00;;;15.37;80.44
62103;BME280;48077;48.104;11.702;2022-07-10T07:12:44;95984.19;;;15.27;79.67
62103;BME280;48077;48.104;11.702;2022-07-10T07:15:07;95996.78;;;15.27;81.15
62103;BME280;48077;48.104;11.702;2022-07-10T07:17:31;95992.72;;;15.24;81.41
62103;BME280;48077;48.104;11.702;2022-07-10T07:19:59;95997.88;;;15.26;82.12
62103;BME280;48077;48.104;11.702;2022-07-10T07:22:41;96010.34;;;15.15;80.88
62103;BME280;48077;48.104;11.702;2022-07-10T07:25:23;96001.78;;;15.18;81.30
62103;BME280;48077;48.104;11.702;2022-07-10T07:27:47;96021.34;;;15.13;80.86
62103;BME280;48077;48.104;11.702;2022-07-10T07:30:12;96005.66;;;15.05;82.13
62103;BME280;48077;48.104;11.702;2022-07-10T07:32:38;96013.03;;;15.15;82.49
62103;BME280;48077;48.104;11.702;2022-07-10T07:35:02;96005.69;;;15.27;81.41
62103;BME280;48077;48.104;11.702;2022-07-10T07:37:37;96030.84;;;15.43;81.96
62103;BME280;48077;48.104;11.702;2022-07-10T07:40:01;96027.34;;;15.43;80.86
62103;BME280;48077;48.104;11.702;2022-07-10T07:42:25;96005.59;;;15.22;81.52
62103;BME280;48077;48.104;11.702;2022-07-10T07:44:48;96017.41;;;15.21;81.90
62103;BME280;48077;48.104;11.702;2022-07-10T07:47:11;96042.78;;;15.30;81.94
62103;BME280;48077;48.104;11.702;2022-07-10T07:49:35;96028.91;;;15.16;81.38
62103;BME280;48077;48.104;11.702;2022-07-10T07:51:58;96048.41;;;15.29;81.07
62103;BME280;48077;48.104;11.702;2022-07-10T07:54:23;96022.09;;;15.31;80.42
62103;BME280;48077;48.104;11.702;2022-07-10T07:56:46;96041.97;;;15.52;80.44
62103;BME280;48077;48.104;11.702;2022-07-10T07:59:10;96024.44;;;15.44;79.18
62103;BME280;48077;48.104;11.702;2022-07-10T08:01:35;96028.38;;;15.58;79.46
62103;BME280;48077;48.104;11.702;2022-07-10T08:03:59;96017.41;;;15.65;79.84
62103;BME280;48077;48.104;11.702;2022-07-10T08:06:22;96034.19;;;15.72;78.51
62103;BME280;48077;48.104;11.702;2022-07-10T08:08:46;96020.97;;;15.71;77.21
62103;BME280;48077;48.104;11.702;2022-07-10T08:11:09;96016.09;;;15.90;76.55
62103;BME280;48077;48.104;11.702;2022-07-10T08:13:32;96021.47;;;15.90;74.67
62103;BME280;48077;48.104;11.702;2022-07-10T08:15:57;96028.16;;;16.14;75.09
62103;BME280;48077;48.104;11.702;2022-07-10T08:18:20;96017.28;;;16.31;73.35
62103;BME280;48077;48.104;11.702;2022-07-10T08:20:44;96027.75;;;16.60;72.84
62103;BME280;48077;48.104;11.702;2022-07-10T08:23:07;96039.75;;;16.79;70.63
62103;BME280;48077;48.104;11.702;2022-07-10T08:25:31;96022.41;;;16.65;70.14
62103;BME280;48077;48.104;11.702;2022-07-10T08:30:41;96006.59;;;16.42;70.33
62103;BME280;48077;48.104;11.702;2022-07-10T08:33:06;96023.13;;;16.55;70.34
62103;BME280;48077;48.104;11.702;2022-07-10T08:35:30;96020.03;;;16.36;66.86
62103;BME280;48077;48.104;11.702;2022-07-10T08:37:53;95998.31;;;16.16;66.98
62103;BME280;48077;48.104;11.702;2022-07-10T08:40:17;96011.84;;;16.26;66.80
62103;BME280;48077;48.104;11.702;2022-07-10T08:42:44;95998.00;;;16.45;67.29
62103;BME280;48077;48.104;11.702;2022-07-10T08:45:08;96019.59;;;16.87;67.04
62103;BME280;48077;48.104;11.702;2022-07-10T08:47:36;96000.47;;;16.84;64.97
62103;BME280;48077;48.104;11.702;2022-07-10T08:50:00;95981.44;;;17.01;64.65
62103;BME280;48077;48.104;11.702;2022-07-10T08:52:34;95990.00;;;17.40;63.58
62103;BME280;48077;48.104;11.702;2022-07-10T08:55:01;96006.50;;;17.64;63.67
62103;BME280;48077;48.104;11.702;2022-07-10T08:57:26;96007.84;;;17.56;63.31
62103;BME280;48077;48.104;11.702;2022-07-10T08:59:50;96002.03;;;17.22;63.62
62103;BME280;48077;48.104;11.702;2022-07-10T09:02:13;96004.59;;;16.96;63.11
62103;BME280;48077;48.104;11.702;2022-07-10T09:04:36;96017.94;;;16.81;63.81
62103;BME280;48077;48.104;11.702;2022-07-10T09:07:00;96015.38;;;16.64;65.33
62103;BME280;48077;48.104;11.702;2022-07-10T09:09:23;95987.75;;;16.42;65.06
62103;BME280;48077;48.104;11.702;2022-07-10T09:11:47;96022.75;;;16.79;64.05
62103;BME280;48077;48.104;11.702;2022-07-10T09:14:14;96009.19;;;17.01;64.45
62103;BME280;48077;48.104;11.702;2022-07-10T09:16:39;96009.81;;;17.18;60.85
62103;BME280;48077;48.104;11.702;2022-07-10T09:21:43;96006.38;;;18.02;61.61
62103;BME280;48077;48.104;11.702;2022-07-10T09:24:07;95966.22;;;17.37;61.10
62103;BME280;48077;48.104;11.702;2022-07-10T09:26:31;96005.31;;;17.39;62.43
62103;BME280;48077;48.104;11.702;2022-07-10T09:29:15;96019.97;;;16.96;61.67
62103;BME280;48077;48.104;11.702;2022-07-10T09:31:54;96023.84;;;16.78;63.32
62103;BME280;48077;48.104;11.702;2022-07-10T09:34:44;96027.41;;;16.84;62.02
62103;BME280;48077;48.104;11.702;2022-07-10T09:37:28;96018.38;;;17.05;62.34
62103;BME280;48077;48.104;11.702;2022-07-10T09:40:05;96026.38;;;17.37;62.79
62103;BME280;48077;48.104;11.702;2022-07-10T09:44:53;95995.63;;;17.44;60.37
62103;BME280;48077;48.104;11.702;2022-07-10T09:47:23;96009.66;;;17.35;57.81
62103;BME280;48077;48.104;11.702;2022-07-10T09:49:46;96000.22;;;17.38;58.11
62103;BME280;48077;48.104;11.702;2022-07-10T09:52:09;96007.56;;;17.58;58.93
62103;BME280;48077;48.104;11.702;2022-07-10T09:54:34;95992.78;;;17.76;58.17
62103;BME280;48077;48.104;11.702;2022-07-10T09:57:00;96001.22;;;17.90;57.81
62103;BME280;48077;48.104;11.702;2022-07-10T09:59:26;95996.53;;;17.59;55.53
62103;BME280;48077;48.104;11.702;2022-07-10T10:01:54;95997.38;;;17.75;56.71
62103;BME280;48077;48.104;11.702;2022-07-10T10:04:20;95985.03;;;17.90;54.08
62103;BME280;48077;48.104;11.702;2022-07-10T10:06:46;95964.81;;;18.08;53.88
62103;BME280;48077;48.104;11.702;2022-07-10T10:09:26;95970.50;;;18.37;53.67
62103;BME280;48077;48.104;11.702;2022-07-10T10:11:57;95984.78;;;18.48;52.87
62103;BME280;48077;48.104;11.702;2022-07-10T10:14:27;96002.88;;;18.78;54.56
62103;BME280;48077;48.104;11.702;2022-07-10T10:16:51;95998.84;;;18.39;52.56
62103;BME280;48077;48.104;11.702;2022-07-10T10:19:18;95997.50;;;18.63;50.83
62103;BME280;48077;48.104;11.702;2022-07-10T10:22:01;95995.59;;;18.48;52.42
62103;BME280;48077;48.104;11.702;2022-07-10T10:24:25;95992.06;;;18.16;50.25
62103;BME280;48077;48.104;11.702;2022-07-10T10:26:49;95987.50;;;18.48;50.42
62103;BME280;48077;48.104;11.702;2022-07-10T10:29:13;95993.16;;;18.72;49.70
62103;BME280;48077;48.104;11.702;2022-07-10T10:31:37;95985.31;;;18.91;47.43
62103;BME280;48077;48.104;11.702;2022-07-10T10:34:01;95979.34;;;18.99;49.62
62103;BME280;48077;48.104;11.702;2022-07-10T10:36:43;95978.81;;;18.76;48.63
62103;BME280;48077;48.104;11.702;2022-07-10T10:39:16;95985.88;;;18.52;49.61
62103;BME280;48077;48.104;11.702;2022-07-10T10:41:42;95991.00;;;18.89;49.82
62103;BME280;48077;48.104;11.702;2022-07-10T10:46:32;95962.94;;;18.39;49.75
62103;BME280;48077;48.104;11.702;2022-07-10T10:49:06;95984.81;;;18.37;49.22
62103;BME280;48077;48.104;11.702;2022-07-10T10:52:03;95991.56;;;18.86;49.69
62103;BME280;48077;48.104;11.702;2022-07-10T10:54:27;95960.44;;;18.99;48.36
62103;BME280;48077;48.104;11.702;2022-07-10T10:57:14;95979.69;;;19.57;48.85
62103;BME280;48077;48.104;11.702;2022-07-10T10:59:45;95973.34;;;19.23;47.99
62103;BME280;48077;48.104;11.702;2022-07-10T11:04:45;95955.59;;;19.61;46.37
62103;BME280;48077;48.104;11.702;2022-07-10T11:07:08;95977.47;;;20.19;45.20
62103;BME280;48077;48.104;11.702;2022-07-10T11:09:32;95965.28;;;19.72;45.16
62103;BME280;48077;48.104;11.702;2022-07-10T11:14:30;95971.78;;;19.01;49.00
62103;BME280;48077;48.104;11.702;2022-07-10T11:16:57;95959.09;;;18.91;48.91
62103;BME280;48077;48.104;11.702;2022-07-10T11:19:22;95980.69;;;19.07;47.40
62103;BME280;48077;48.104;11.702;2022-07-10T11:21:46;95981.72;;;19.26;47.55
62103;BME280;48077;48.104;11.702;2022-07-10T11:24:23;95960.03;;;19.36;46.69
62103;BME280;48077;48.104;11.702;2022-07-10T11:29:18;95965.72;;;19.35;48.79
62103;BME280;48077;48.104;11.702;2022-07-10T11:31:41;95968.78;;;19.08;48.26
62103;BME280;48077;48.104;11.702;2022-07-10T11:34:08;95958.56;;;18.89;47.38
62103;BME280;48077;48.104;11.702;2022-07-10T11:36:31;95967.75;;;18.73;47.42
62103;BME280;48077;48.104;11.702;2022-07-10T11:38:57;95970.19;;;18.90;47.64
62103;BME280;48077;48.104;11.702;2022-07-10T11:41:23;95952.03;;;19.06;47.67
62103;BME280;48077;48.104;11.702;2022-07-10T11:43:48;95989.84;;;19.16;48.46
62103;BME280;48077;48.104;11.702;2022-07-10T11:46:11;95987.16;;;19.16;46.88
62103;BME280;48077;48.104;11.702;2022-07-10T11:48:38;95967.97;;;19.12;47.07
62103;BME280;48077;48.104;11.702;2022-07-10T11:51:02;95954.84;;;19.50;48.02
62103;BME280;48077;48.104;11.702;2022-07-10T11:53:26;95973.75;;;20.05;44.43
62103;BME280;48077;48.104;11.702;2022-07-10T11:55:50;95981.53;;;20.51;45.70
62103;BME280;48077;48.104;11.702;2022-07-10T11:58:16;95971.75;;;21.14;45.25
62103;BME280;48077;48.104;11.702;2022-07-10T12:00:40;95968.47;;;21.17;43.04
62103;BME280;48077;48.104;11.702;2022-07-10T12:03:18;95965.41;;;20.70;44.55
62103;BME280;48077;48.104;11.702;2022-07-10T12:05:41;95970.31;;;20.68;45.20
62103;BME280;48077;48.104;11.702;2022-07-10T12:08:05;95960.59;;;20.62;43.87
62103;BME280;48077;48.104;11.702;2022-07-10T12:10:30;95954.34;;;20.67;44.94
62103;BME280;48077;48.104;11.702;2022-07-10T12:12:53;95964.16;;;20.63;45.63
62103;BME280;48077;48.104;11.702;2022-07-10T12:15:35;95978.59;;;21.06;43.42
62103;BME280;48077;48.104;11.702;2022-07-10T12:18:00;95958.47;;;20.88;44.86
62103;BME280;48077;48.104;11.702;2022-07-10T12:20:25;95964.34;;;20.71;45.39
62103;BME280;48077;48.104;11.702;2022-07-10T12:22:48;95958.22;;;20.85;43.58
62103;BME280;48077;48.104;11.702;2022-07-10T12:25:12;95967.75;;;21.06;43.12
62103;BME280;48077;48.104;11.702;2022-07-10T12:27:39;95957.59;;;20.93;43.23
62103;BME280;48077;48.104;11.702;2022-07-10T12:30:03;95964.13;;;21.16;43.93
62103;BME280;48077;48.104;11.702;2022-07-10T12:32:27;95950.16;;;20.79;42.20
62103;BME280;48077;48.104;11.702;2022-07-10T12:34:50;95965.41;;;20.70;42.87
62103;BME280;48077;48.104;11.702;2022-07-10T12:37:16;95939.75;;;20.63;43.90
62103;BME280;48077;48.104;11.702;2022-07-10T12:39:47;95961.50;;;20.18;43.83
62103;BME280;48077;48.104;11.702;2022-07-10T12:42:11;95946.22;;;19.93;45.34
62103;BME280;48077;48.104;11.702;2022-07-10T12:47:13;95974.63;;;19.95;45.12
62103;BME280;48077;48.104;11.702;2022-07-10T12:54:47;95965.56;;;20.15;44.31
62103;BME280;48077;48.104;11.702;2022-07-10T12:57:11;95947.53;;;20.00;44.05
62103;BME280;48077;48.104;11.702;2022-07-10T12:59:35;95982.81;;;20.25;43.99
62103;BME280;48077;48.104;11.702;2022-07-10T13:02:14;95971.38;;;19.98;44.74
62103;BME280;48077;48.104;11.702;2022-07-10T13:04:37;95978.59;;;20.13;43.94